createdAt,value
2022-08-25T00:00:22.300Z,101909.41
2022-08-25T00:02:56.241Z,101912.72
2022-08-25T00:05:32.387Z,101911.94
2022-08-25T00:08:06.065Z,101909.41
2022-08-25T00:10:37.347Z,101904.09
2022-08-25T00:13:07.760Z,101907.53
2022-08-25T00:15:38.315Z,101907.00
2022-08-25T00:18:19.463Z,101897.97
2022-08-25T00:20:50.774Z,101902.81
2022-08-25T00:23:20.621Z,101900.84
2022-08-25T00:25:50.831Z,101900.47
2022-08-25T00:28:20.354Z,101900.31
2022-08-25T00:30:49.900Z,101906.25
2022-08-25T00:33:19.806Z,101904.13
2022-08-25T00:35:50.233Z,101895.19
2022-08-25T00:38:19.372Z,101898.41
2022-08-25T00:41:05.678Z,101899.66
2022-08-25T00:43:45.584Z,101896.16
2022-08-25T00:46:16.003Z,101899.34
2022-08-25T00:48:51.849Z,101895.53
2022-08-25T00:51:28.589Z,101899.66
2022-08-25T00:53:58.032Z,101892.00
2022-08-25T00:56:28.193Z,101895.63
2022-08-25T00:58:58.131Z,101890.63
2022-08-25T01:01:27.966Z,101895.53
2022-08-25T01:03:57.355Z,101901.28
2022-08-25T01:06:29.450Z,101901.69
2022-08-25T01:08:58.638Z,101903.41
2022-08-25T01:11:27.995Z,101896.22
2022-08-25T01:14:03.132Z,101897.19
2022-08-25T01:16:32.485Z,101887.81
2022-08-25T01:19:02.093Z,101900.41
2022-08-25T01:21:39.634Z,101893.97
2022-08-25T01:24:12.210Z,101896.75
2022-08-25T01:26:41.261Z,101896.41
2022-08-25T01:29:25.335Z,101899.84
2022-08-25T01:31:57.685Z,101899.19
2022-08-25T01:34:28.488Z,101898.78
2022-08-25T01:37:00.071Z,101896.31
2022-08-25T01:39:33.792Z,101905.53
2022-08-25T01:42:25.514Z,101909.25
2022-08-25T01:44:54.571Z,101899.09
2022-08-25T01:47:24.534Z,101908.63
2022-08-25T01:49:53.572Z,101901.97
2022-08-25T01:52:31.019Z,101899.50
2022-08-25T01:55:00.150Z,101908.41
2022-08-25T01:57:31.850Z,101907.88
2022-08-25T02:00:01.703Z,101901.50
2022-08-25T02:02:42.548Z,101903.84
2022-08-25T02:05:14.023Z,101912.91
2022-08-25T02:07:45.094Z,101908.31
2022-08-25T02:10:14.932Z,101908.75
2022-08-25T02:12:44.086Z,101915.03
2022-08-25T02:15:14.512Z,101914.75
2022-08-25T02:17:43.806Z,101920.31
2022-08-25T02:20:13.163Z,101917.84
2022-08-25T02:22:45.030Z,101922.88
2022-08-25T02:25:24.652Z,101922.75
2022-08-25T02:27:53.660Z,101925.28
2022-08-25T02:30:23.078Z,101915.25
2022-08-25T02:32:52.258Z,101914.97
2022-08-25T02:35:21.570Z,101923.88
2022-08-25T02:37:54.665Z,101914.97
2022-08-25T02:40:24.040Z,101919.91
2022-08-25T02:42:53.381Z,101917.25
2022-08-25T02:45:22.610Z,101914.84
2022-08-25T02:47:52.193Z,101907.31
2022-08-25T02:50:21.710Z,101913.88
2022-08-25T02:52:52.465Z,101910.81
2022-08-25T02:55:21.930Z,101906.78
2022-08-25T02:57:51.615Z,101915.97
2022-08-25T03:00:21.324Z,101909.97
2022-08-25T03:02:52.541Z,101901.19
2022-08-25T03:05:21.533Z,101894.53
2022-08-25T03:07:51.913Z,101898.03
2022-08-25T03:10:23.133Z,101895.38
2022-08-25T03:12:52.365Z,101885.59
2022-08-25T03:15:21.784Z,101890.09
2022-08-25T03:17:50.805Z,101886.59
2022-08-25T03:20:21.349Z,101882.53
2022-08-25T03:22:51.907Z,101888.25
2022-08-25T03:25:38.675Z,101887.56
2022-08-25T03:28:09.330Z,101888.25
2022-08-25T03:30:38.598Z,101892.03
2022-08-25T03:33:07.800Z,101892.56
2022-08-25T03:35:36.953Z,101896.75
2022-08-25T03:38:07.457Z,101896.47
2022-08-25T03:40:37.098Z,101899.13
2022-08-25T03:43:06.440Z,101892.72
2022-08-25T03:45:36.088Z,101888.41
2022-08-25T03:48:05.861Z,101885.75
2022-08-25T03:50:35.682Z,101886.19
2022-08-25T03:53:06.445Z,101888.41
2022-08-25T03:55:35.838Z,101876.44
2022-08-25T03:58:04.990Z,101881.31
2022-08-25T04:00:34.094Z,101882.44
2022-08-25T04:03:03.279Z,101886.91
2022-08-25T04:05:32.331Z,101891.91
2022-08-25T04:08:02.490Z,101884.53
2022-08-25T04:10:33.687Z,101883.13
2022-08-25T04:13:03.416Z,101881.75
2022-08-25T04:15:32.724Z,101878.00
2022-08-25T04:18:01.832Z,101880.88
2022-08-25T04:20:31.163Z,101879.25
2022-08-25T04:23:01.261Z,101881.59
2022-08-25T04:25:31.788Z,101877.16
2022-08-25T04:28:00.990Z,101884.94
2022-08-25T04:30:30.198Z,101885.66
2022-08-25T04:32:59.328Z,101878.78
2022-08-25T04:35:28.422Z,101885.22
2022-08-25T04:37:57.632Z,101893.72
2022-08-25T04:40:29.211Z,101890.78
2022-08-25T04:43:00.071Z,101892.75
2022-08-25T04:45:29.206Z,101902.22
2022-08-25T04:48:00.840Z,101898.31
2022-08-25T04:50:30.113Z,101897.91
2022-08-25T04:53:02.540Z,101894.28
2022-08-25T04:55:31.843Z,101904.72
2022-08-25T04:58:02.782Z,101910.41
2022-08-25T05:00:31.922Z,101910.69
2022-08-25T05:03:00.956Z,101912.38
2022-08-25T05:05:36.623Z,101909.84
2022-08-25T05:08:06.646Z,101900.41
2022-08-25T05:10:39.705Z,101897.28
2022-08-25T05:13:10.094Z,101894.94
2022-08-25T05:15:51.120Z,101898.00
2022-08-25T05:18:22.080Z,101896.06
2022-08-25T05:20:53.751Z,101892.28
2022-08-25T05:23:23.910Z,101888.22
2022-08-25T05:25:53.951Z,101886.41
2022-08-25T05:28:24.446Z,101887.38
2022-08-25T05:30:58.766Z,101877.75
2022-08-25T05:33:31.603Z,101880.94
2022-08-25T05:36:02.558Z,101876.88
2022-08-25T05:38:31.835Z,101883.81
2022-08-25T05:41:02.969Z,101876.69
2022-08-25T05:43:33.957Z,101878.38
2022-08-25T05:46:03.484Z,101874.28
2022-08-25T05:48:32.772Z,101879.44
2022-08-25T05:51:04.615Z,101878.72
2022-08-25T05:53:34.201Z,101883.50
2022-08-25T05:56:04.753Z,101886.13
2022-08-25T05:58:35.632Z,101888.72
2022-08-25T06:01:20.679Z,101891.03
2022-08-25T06:03:53.990Z,101886.47
2022-08-25T06:06:27.103Z,101891.47
2022-08-25T06:08:57.252Z,101881.94
2022-08-25T06:11:27.328Z,101889.81
2022-08-25T06:13:57.741Z,101889.31
2022-08-25T06:16:26.896Z,101882.66
2022-08-25T06:18:57.147Z,101878.56
2022-08-25T06:21:26.145Z,101884.31
2022-08-25T06:23:55.365Z,101876.13
2022-08-25T06:26:24.941Z,101878.16
2022-08-25T06:28:54.793Z,101880.81
2022-08-25T06:31:25.231Z,101878.63
2022-08-25T06:33:54.423Z,101879.22
2022-08-25T06:36:23.738Z,101884.41
2022-08-25T06:38:54.662Z,101880.06
2022-08-25T06:41:25.271Z,101877.50
2022-08-25T06:44:06.028Z,101875.28
2022-08-25T06:46:37.238Z,101876.69
2022-08-25T06:49:06.953Z,101873.31
2022-08-25T06:51:36.812Z,101875.84
2022-08-25T06:54:07.400Z,101881.75
2022-08-25T06:56:36.782Z,101884.75
2022-08-25T06:59:07.588Z,101883.78
2022-08-25T07:01:38.642Z,101888.03
2022-08-25T07:04:13.182Z,101889.09
2022-08-25T07:06:43.292Z,101886.38
2022-08-25T07:09:14.125Z,101894.31
2022-08-25T07:11:44.421Z,101890.59
2022-08-25T07:14:16.166Z,101892.56
2022-08-25T07:16:50.364Z,101906.53
2022-08-25T07:19:21.435Z,101898.09
2022-08-25T07:21:54.076Z,101906.63
2022-08-25T07:24:24.266Z,101904.09
2022-08-25T07:26:53.955Z,101902.75
2022-08-25T07:29:32.419Z,101905.38
2022-08-25T07:32:04.645Z,101905.31
2022-08-25T07:34:52.385Z,101904.88
2022-08-25T07:37:47.538Z,101901.44
2022-08-25T07:40:15.156Z,101899.97
2022-08-25T07:42:44.750Z,101894.84
2022-08-25T07:45:15.591Z,101893.41
2022-08-25T07:47:53.708Z,101898.66
2022-08-25T07:50:23.997Z,101905.41
2022-08-25T07:53:05.392Z,101906.00
2022-08-25T07:55:36.672Z,101904.00
2022-08-25T07:58:07.076Z,101893.78
2022-08-25T08:00:37.783Z,101898.09
2022-08-25T08:03:12.963Z,101897.72
2022-08-25T08:05:56.418Z,101893.84
2022-08-25T08:08:25.429Z,101890.72
2022-08-25T08:11:04.709Z,101893.53
2022-08-25T08:13:38.043Z,101889.28
2022-08-25T08:16:11.203Z,101886.53
2022-08-25T08:18:42.875Z,101885.47
2022-08-25T08:21:19.316Z,101886.34
2022-08-25T08:23:49.597Z,101890.00
2022-08-25T08:26:20.606Z,101900.81
2022-08-25T08:28:52.151Z,101888.59
2022-08-25T08:31:21.975Z,101889.00
2022-08-25T08:33:54.095Z,101895.81
2022-08-25T08:36:25.466Z,101881.38
2022-08-25T08:38:54.840Z,101890.66
2022-08-25T08:42:12.241Z,101883.16
2022-08-25T08:44:58.032Z,101885.81
2022-08-25T08:47:52.803Z,101879.81
2022-08-25T08:50:33.159Z,101883.59
2022-08-25T08:53:08.266Z,101886.78
2022-08-25T08:55:40.910Z,101890.91
2022-08-25T08:58:13.946Z,101885.09
2022-08-25T09:00:52.045Z,101880.00
2022-08-25T09:03:32.802Z,101872.19
2022-08-25T09:06:07.037Z,101875.50
2022-08-25T09:08:37.529Z,101871.69
2022-08-25T09:11:16.353Z,101868.59
2022-08-25T09:14:05.518Z,101872.81
2022-08-25T09:16:58.653Z,101864.63
2022-08-25T09:19:46.067Z,101856.72
2022-08-25T09:22:33.968Z,101851.03
2022-08-25T09:25:18.753Z,101851.66
2022-08-25T09:28:02.985Z,101859.06
2022-08-25T09:30:42.387Z,101842.97
2022-08-25T09:33:20.869Z,101847.41
2022-08-25T09:35:53.736Z,101841.88
2022-08-25T09:38:24.782Z,101846.66
2022-08-25T09:40:57.328Z,101844.31
2022-08-25T09:43:34.387Z,101836.75
2022-08-25T09:46:10.546Z,101829.53
2022-08-25T09:48:46.414Z,101824.31
2022-08-25T09:51:21.285Z,101827.50
2022-08-25T09:53:58.761Z,101819.72
2022-08-25T09:56:31.772Z,101813.53
2022-08-25T09:59:34.392Z,101805.44
2022-08-25T10:02:07.413Z,101794.91
2022-08-25T10:04:38.632Z,101794.72
2022-08-25T10:07:26.811Z,101797.66
2022-08-25T10:09:59.851Z,101795.88
2022-08-25T10:12:36.865Z,101771.94
2022-08-25T10:15:29.956Z,101770.88
2022-08-25T10:18:25.635Z,101768.88
2022-08-25T10:21:08.438Z,101770.72
2022-08-25T10:23:42.056Z,101762.44
2022-08-25T10:26:34.818Z,101766.56
2022-08-25T10:29:18.289Z,101757.84
2022-08-25T10:31:56.020Z,101758.50
2022-08-25T10:34:44.446Z,101759.16
2022-08-25T10:37:28.258Z,101758.50
2022-08-25T10:40:16.736Z,101762.41
2022-08-25T10:42:59.763Z,101757.84
2022-08-25T10:45:47.712Z,101752.03
2022-08-25T10:48:48.755Z,101744.41
2022-08-25T10:51:41.949Z,101737.38
2022-08-25T10:54:32.820Z,101737.00
2022-08-25T10:57:14.764Z,101731.91
2022-08-25T11:00:02.667Z,101721.03
2022-08-25T11:02:48.442Z,101717.97
2022-08-25T11:05:27.065Z,101721.66
2022-08-25T11:08:06.560Z,101697.47
2022-08-25T11:10:42.050Z,101700.81
2022-08-25T11:13:18.750Z,101698.63
2022-08-25T11:16:16.127Z,101699.88
2022-08-25T11:18:52.617Z,101699.06
2022-08-25T11:21:26.640Z,101693.72
2022-08-25T11:24:06.904Z,101689.44
2022-08-25T11:26:41.638Z,101691.25
2022-08-25T11:29:15.911Z,101682.19
2022-08-25T11:31:53.338Z,101681.69
2022-08-25T11:34:23.826Z,101687.03
2022-08-25T11:36:58.013Z,101681.44
2022-08-25T11:39:40.786Z,101672.88
2022-08-25T11:42:22.252Z,101676.16
2022-08-25T11:45:03.794Z,101665.00
2022-08-25T11:48:06.639Z,101665.75
2022-08-25T11:50:37.773Z,101665.34
2022-08-25T11:53:28.140Z,101657.69
2022-08-25T11:56:02.491Z,101657.22
2022-08-25T11:58:47.560Z,101661.56
2022-08-25T12:02:01.501Z,101657.75
2022-08-25T12:04:45.028Z,101646.16
2022-08-25T12:07:27.972Z,101636.19
2022-08-25T12:10:18.634Z,101630.44
2022-08-25T12:13:22.949Z,101630.47
2022-08-25T12:16:00.851Z,101623.41
2022-08-25T12:18:46.494Z,101629.78
2022-08-25T12:21:34.539Z,101627.63
2022-08-25T12:24:17.797Z,101622.50
2022-08-25T12:26:57.038Z,101618.63
2022-08-25T12:29:32.834Z,101607.44
2022-08-25T12:32:15.423Z,101604.50
2022-08-25T12:35:17.257Z,101612.56
2022-08-25T12:38:00.953Z,101609.03
2022-08-25T12:40:36.445Z,101605.22
2022-08-25T12:43:10.263Z,101595.50
2022-08-25T12:45:46.438Z,101596.38
2022-08-25T12:48:57.128Z,101598.59
2022-08-25T12:51:29.216Z,101594.13
2022-08-25T12:54:15.854Z,101600.19
2022-08-25T12:56:51.171Z,101587.00
2022-08-25T12:59:23.673Z,101581.75
2022-08-25T13:02:18.663Z,101582.44
2022-08-25T13:05:26.644Z,101576.09
2022-08-25T13:08:26.857Z,101578.69
2022-08-25T13:10:59.325Z,101581.50
2022-08-25T13:13:46.848Z,101572.91
2022-08-25T13:16:20.258Z,101572.81
2022-08-25T13:18:51.501Z,101564.88
2022-08-25T13:21:24.723Z,101561.47
2022-08-25T13:24:04.705Z,101554.81
2022-08-25T13:26:48.111Z,101553.78
2022-08-25T13:29:21.687Z,101562.72
2022-08-25T13:31:57.540Z,101552.78
2022-08-25T13:34:34.425Z,101544.09
2022-08-25T13:37:26.345Z,101532.75
2022-08-25T13:40:10.891Z,101529.38
2022-08-25T13:42:47.397Z,101523.19
2022-08-25T13:45:25.221Z,101524.19
2022-08-25T13:47:55.857Z,101521.66
2022-08-25T13:50:45.183Z,101517.84
2022-08-25T13:53:25.998Z,101509.53
2022-08-25T13:55:59.321Z,101516.91
2022-08-25T13:58:45.277Z,101512.31
2022-08-25T14:01:22.244Z,101512.13
2022-08-25T14:04:29.490Z,101510.63
2022-08-25T14:07:14.772Z,101514.69
2022-08-25T14:09:52.181Z,101505.91
2022-08-25T14:12:40.843Z,101501.97
2022-08-25T14:15:29.338Z,101501.84
2022-08-25T14:18:05.339Z,101497.84
2022-08-25T14:20:37.116Z,101503.78
2022-08-25T14:23:10.268Z,101499.69
2022-08-25T14:25:40.743Z,101496.09
2022-08-25T14:28:14.084Z,101501.16
2022-08-25T14:30:49.299Z,101484.56
2022-08-25T14:33:25.174Z,101489.88
2022-08-25T14:35:56.606Z,101477.44
2022-08-25T14:38:25.928Z,101475.59
2022-08-25T14:40:59.049Z,101460.13
2022-08-25T14:43:31.792Z,101469.19
2022-08-25T14:46:08.307Z,101464.41
2022-08-25T14:48:42.350Z,101456.22
2022-08-25T14:51:14.898Z,101460.38
2022-08-25T14:53:44.487Z,101446.88
2022-08-25T14:56:14.293Z,101456.84
2022-08-25T14:58:48.305Z,101456.44
2022-08-25T15:01:29.221Z,101458.69
2022-08-25T15:04:04.461Z,101445.94
2022-08-25T15:06:36.760Z,101449.34
2022-08-25T15:09:10.778Z,101442.88
2022-08-25T15:11:42.534Z,101442.16
2022-08-25T15:14:15.472Z,101437.50
2022-08-25T15:16:49.224Z,101439.44
2022-08-25T15:19:21.680Z,101437.41
2022-08-25T15:21:52.674Z,101435.03
2022-08-25T15:24:25.021Z,101439.00
2022-08-25T15:26:58.461Z,101441.91
2022-08-25T15:29:30.323Z,101439.50
2022-08-25T15:32:02.465Z,101433.53
2022-08-25T15:34:32.442Z,101428.03
2022-08-25T15:37:09.502Z,101422.75
2022-08-25T15:39:38.873Z,101424.53
2022-08-25T15:42:08.451Z,101417.28
2022-08-25T15:44:37.684Z,101411.13
2022-08-25T15:47:12.533Z,101413.59
2022-08-25T15:49:43.048Z,101406.25
2022-08-25T15:52:13.498Z,101397.78
2022-08-25T15:54:42.529Z,101399.16
2022-08-25T15:57:24.093Z,101401.88
2022-08-25T15:59:53.914Z,101397.06
2022-08-25T16:02:25.038Z,101398.69
2022-08-25T16:04:54.665Z,101397.63
2022-08-25T16:07:23.885Z,101406.19
2022-08-25T16:09:56.217Z,101398.56
2022-08-25T16:12:26.690Z,101396.97
2022-08-25T16:14:57.823Z,101401.91
2022-08-25T16:17:29.311Z,101392.50
2022-08-25T16:19:58.534Z,101392.75
2022-08-25T16:22:28.011Z,101386.22
2022-08-25T16:24:57.441Z,101388.47
2022-08-25T16:27:26.657Z,101376.22
2022-08-25T16:30:08.716Z,101387.41
2022-08-25T16:32:39.198Z,101387.53
2022-08-25T16:35:11.162Z,101381.81
2022-08-25T16:37:41.237Z,101385.78
2022-08-25T16:40:14.658Z,101389.69
2022-08-25T16:42:45.566Z,101389.41
2022-08-25T16:45:15.566Z,101387.13
2022-08-25T16:47:47.441Z,101388.16
2022-08-25T16:50:19.003Z,101384.06
2022-08-25T16:53:08.040Z,101383.91
2022-08-25T16:55:39.325Z,101385.63
2022-08-25T16:58:13.542Z,101384.13
2022-08-25T17:00:44.908Z,101384.97
2022-08-25T17:03:16.509Z,101383.38
2022-08-25T17:05:46.237Z,101371.19
2022-08-25T17:08:31.232Z,101377.03
2022-08-25T17:11:11.640Z,101373.94
2022-08-25T17:13:45.873Z,101371.84
2022-08-25T17:16:16.694Z,101373.78
2022-08-25T17:18:48.562Z,101376.47
2022-08-25T17:21:24.983Z,101371.50
2022-08-25T17:23:56.524Z,101378.97
2022-08-25T17:26:29.118Z,101382.06
2022-08-25T17:29:01.403Z,101379.38
2022-08-25T17:31:31.558Z,101384.16
2022-08-25T17:34:05.497Z,101372.56
2022-08-25T17:36:37.530Z,101380.22
2022-08-25T17:39:12.276Z,101370.69
2022-08-25T17:41:44.560Z,101374.84
2022-08-25T17:44:15.599Z,101382.06
2022-08-25T17:46:47.905Z,101383.94
2022-08-25T17:49:20.462Z,101377.53
2022-08-25T17:51:50.555Z,101379.00
2022-08-25T17:54:21.722Z,101378.59
2022-08-25T17:56:51.808Z,101386.88
2022-08-25T17:59:21.621Z,101380.44
2022-08-25T18:01:55.481Z,101388.88
2022-08-25T18:04:29.665Z,101380.81
2022-08-25T18:07:00.891Z,101389.66
2022-08-25T18:09:31.231Z,101398.09
2022-08-25T18:12:01.057Z,101388.56
2022-08-25T18:14:31.018Z,101389.56
2022-08-25T18:17:03.776Z,101393.50
2022-08-25T18:19:36.118Z,101391.97
2022-08-25T18:22:06.528Z,101403.50
2022-08-25T18:24:36.610Z,101397.91
2022-08-25T18:27:06.518Z,101397.84
2022-08-25T18:29:37.153Z,101396.81
2022-08-25T18:32:12.442Z,101400.84
2022-08-25T18:34:43.156Z,101399.16
2022-08-25T18:37:29.810Z,101397.88
2022-08-25T18:40:19.095Z,101396.78
2022-08-25T18:42:48.552Z,101406.16
2022-08-25T18:45:18.126Z,101399.53
2022-08-25T18:47:47.285Z,101401.34
2022-08-25T18:50:17.809Z,101406.16
2022-08-25T18:52:48.939Z,101397.50
2022-08-25T18:55:18.284Z,101398.25
2022-08-25T18:57:47.668Z,101409.28
2022-08-25T19:00:22.333Z,101406.78
2022-08-25T19:02:54.675Z,101407.53
2022-08-25T19:05:28.178Z,101397.44
2022-08-25T19:07:57.847Z,101399.19
2022-08-25T19:10:28.257Z,101404.94
2022-08-25T19:12:58.907Z,101401.34
2022-08-25T19:15:37.749Z,101400.06
2022-08-25T19:18:09.957Z,101405.78
2022-08-25T19:20:43.106Z,101391.53
2022-08-25T19:23:13.122Z,101394.13
2022-08-25T19:25:42.866Z,101403.91
2022-08-25T19:28:13.979Z,101404.91
2022-08-25T19:30:49.963Z,101407.13
2022-08-25T19:33:42.574Z,101400.06
2022-08-25T19:36:12.591Z,101401.00
2022-08-25T19:38:43.988Z,101398.25
2022-08-25T19:41:15.009Z,101402.13
2022-08-25T19:43:54.972Z,101408.00
2022-08-25T19:46:33.370Z,101405.91
2022-08-25T19:49:09.802Z,101403.78
2022-08-25T19:51:44.251Z,101404.50
2022-08-25T19:54:15.625Z,101393.91
2022-08-25T19:56:54.278Z,101395.56
2022-08-25T19:59:26.752Z,101408.00
2022-08-25T20:02:11.870Z,101413.41
2022-08-25T20:04:41.162Z,101407.63
2022-08-25T20:07:12.400Z,101413.78
2022-08-25T20:09:42.491Z,101412.66
2022-08-25T20:14:44.584Z,101409.00
2022-08-25T20:17:23.042Z,101406.88
2022-08-25T20:19:55.327Z,101408.03
2022-08-25T20:22:27.475Z,101402.91
2022-08-25T20:24:58.725Z,101408.13
2022-08-25T20:27:36.732Z,101404.81
2022-08-25T20:30:10.183Z,101405.34
2022-08-25T20:32:39.736Z,101414.88
2022-08-25T20:35:13.144Z,101410.66
2022-08-25T20:37:45.632Z,101410.78
2022-08-25T20:40:17.927Z,101401.97
2022-08-25T20:42:50.085Z,101414.50
2022-08-25T20:45:22.812Z,101408.72
2022-08-25T20:47:52.642Z,101414.25
2022-08-25T20:50:22.785Z,101405.13
2022-08-25T20:52:56.656Z,101408.78
2022-08-25T20:55:27.690Z,101401.34
2022-08-25T20:57:56.817Z,101404.34
2022-08-25T21:00:25.978Z,101408.38
2022-08-25T21:02:56.503Z,101412.38
2022-08-25T21:05:25.597Z,101408.25
2022-08-25T21:07:56.716Z,101406.31
2022-08-25T21:10:26.697Z,101413.78
2022-08-25T21:12:55.733Z,101407.81
2022-08-25T21:15:25.177Z,101409.50
2022-08-25T21:17:55.842Z,101404.69
2022-08-25T21:20:25.941Z,101402.72
2022-08-25T21:22:59.526Z,101407.03
2022-08-25T21:25:28.546Z,101403.22
2022-08-25T21:27:57.889Z,101397.91
2022-08-25T21:30:26.874Z,101410.56
2022-08-25T21:32:57.718Z,101410.47
2022-08-25T21:35:27.578Z,101413.28
2022-08-25T21:37:59.770Z,101416.09
2022-08-25T21:40:28.986Z,101405.66
2022-08-25T21:42:58.074Z,101408.13
2022-08-25T21:45:27.242Z,101410.25
2022-08-25T21:48:02.333Z,101415.09
2022-08-25T21:50:31.547Z,101411.44
2022-08-25T21:53:02.062Z,101415.09
2022-08-25T21:55:31.982Z,101409.78
2022-08-25T21:58:04.143Z,101408.78
2022-08-25T22:00:33.788Z,101410.97
2022-08-25T22:03:02.924Z,101415.31
2022-08-25T22:05:32.000Z,101403.34
2022-08-25T22:08:02.424Z,101409.66
2022-08-25T22:10:31.421Z,101399.50
2022-08-25T22:13:02.600Z,101401.16
2022-08-25T22:15:31.787Z,101406.00
2022-08-25T22:18:00.899Z,101400.66
2022-08-25T22:20:30.032Z,101410.09
2022-08-25T22:23:00.137Z,101409.75
2022-08-25T22:25:30.580Z,101394.72
2022-08-25T22:28:00.524Z,101397.88
2022-08-25T22:30:29.934Z,101395.03
2022-08-25T22:32:59.508Z,101400.84
2022-08-25T22:35:29.024Z,101401.97
2022-08-25T22:37:58.309Z,101396.19
2022-08-25T22:40:29.002Z,101400.84
2022-08-25T22:42:58.143Z,101394.50
2022-08-25T22:45:28.099Z,101389.53
2022-08-25T22:47:57.467Z,101391.53
2022-08-25T22:50:26.864Z,101392.69
2022-08-25T22:52:56.422Z,101389.34
2022-08-25T22:55:25.515Z,101388.00
2022-08-25T22:57:58.894Z,101385.84
2022-08-25T23:00:29.869Z,101389.72
2022-08-25T23:02:59.023Z,101387.22
2022-08-25T23:05:29.321Z,101384.56
2022-08-25T23:07:58.654Z,101384.75
2022-08-25T23:10:27.785Z,101382.25
2022-08-25T23:12:58.189Z,101386.09
2022-08-25T23:15:27.833Z,101382.13
2022-08-25T23:17:56.873Z,101380.31
2022-08-25T23:20:44.787Z,101381.94
2022-08-25T23:23:14.939Z,101378.28
2022-08-25T23:25:43.976Z,101380.31
2022-08-25T23:28:14.608Z,101373.47
2022-08-25T23:30:44.887Z,101371.38
2022-08-25T23:33:20.496Z,101366.84
2022-08-25T23:35:58.110Z,101363.91
2022-08-25T23:38:27.517Z,101360.09
2022-08-25T23:40:58.508Z,101357.78
2022-08-25T23:43:30.021Z,101345.13
2022-08-25T23:45:59.426Z,101346.16
2022-08-25T23:48:31.386Z,101348.66
2022-08-25T23:51:03.627Z,101360.63
2022-08-25T23:53:33.328Z,101353.16
2022-08-25T23:56:03.246Z,101341.75
2022-08-25T23:58:36.834Z,101342.75
